Pagrindinis puslapis
METAR-TAF:

METAR-TAF

Oro uostai :

Igiugig, Aliaska, Jungtinės Amerikos Valstijos

platuma: 59-19-27N, ilguma: 155-54-06W, Aukštis: 27 m

Dabartinis oras

Ataskaita buvo paskelbta 40 minutes, ne 18:56 UTC
Vėjas 6 kt iš Šiaurės Vakarų
Temperatūra 0°C
Drėgmė 80%
Slėgis 1020 hPa
Matomumas: 16.1 km
Apsiniaukę ne aukštis 4200 ft

METAR: PAIG 281856Z AUTO 31006KT 10SM OVC042 00/M03 A3011 RMK AO2 SLP207 T00001033 PWINO FZRANO $

Laikas: 11:36 (19:36 UTC)


TAF: trūkstamas

Orai ataskaitas ir orų prognozės (METAR, TAF).

turimą stotys yra geltonos ir raudonos taškus žemėlapyje.

Perkelti pele per norėdami pamatyti stoties vardą.

Tada spustelėkite, norėdami matyti oro stebėjimo ir prognozės.

Norėdami pakeisti žemėlapį: spustelėkite ant žalios mygtukų su juodo kryžiaus žemyn,; žalią mygtuką su brūkšneliu, jei norite nutolinti; arba žalių rodyklių gretimoms žemėlapius.


METAR-TAF: